createdAt,value
2017-12-13T00:01:28.743Z,101002.64
2017-12-13T00:03:54.925Z,101019.67
2017-12-13T00:06:21.508Z,101013.53
2017-12-13T00:08:47.815Z,101010.47
2017-12-13T00:11:14.128Z,101010.50
2017-12-13T00:13:41.412Z,101009.70
2017-12-13T00:16:07.770Z,101022.38
2017-12-13T00:18:34.029Z,101016.64
2017-12-13T00:21:00.285Z,101013.94
2017-12-13T00:23:26.504Z,101021.70
2017-12-13T00:25:52.754Z,101030.86
2017-12-13T00:28:19.056Z,101036.41
2017-12-13T00:30:45.231Z,101039.83
2017-12-13T00:33:11.436Z,101042.42
2017-12-13T00:35:37.807Z,101035.41
2017-12-13T00:38:03.988Z,101040.20
2017-12-13T00:40:30.303Z,101032.47
2017-12-13T00:42:56.487Z,101030.31
2017-12-13T00:45:22.668Z,101033.87
2017-12-13T00:47:48.926Z,101039.12
2017-12-13T00:50:15.124Z,101031.27
2017-12-13T00:52:41.333Z,101039.52
2017-12-13T00:55:07.615Z,101019.87
2017-12-13T00:57:33.824Z,101025.53
2017-12-13T01:00:00.008Z,101025.05
2017-12-13T01:02:26.239Z,101014.50
2017-12-13T01:04:52.437Z,101005.73
2017-12-13T01:07:18.622Z,101011.85
2017-12-13T01:09:45.137Z,101011.01
2017-12-13T01:12:11.575Z,101012.73
2017-12-13T01:14:37.817Z,101012.81
2017-12-13T01:17:04.010Z,101005.79
2017-12-13T01:19:30.177Z,101009.70
2017-12-13T01:21:58.872Z,101014.50
2017-12-13T01:24:25.169Z,101008.66
2017-12-13T01:26:51.409Z,101004.13
2017-12-13T01:29:17.676Z,101003.39
2017-12-13T01:31:43.872Z,100992.02
2017-12-13T01:34:10.101Z,100988.12
2017-12-13T01:36:36.381Z,100991.50
2017-12-13T01:39:02.813Z,100998.53
2017-12-13T01:41:29.080Z,100995.98
2017-12-13T01:43:55.355Z,100997.30
2017-12-13T01:46:21.552Z,100986.37
2017-12-13T01:48:47.759Z,100979.89
2017-12-13T01:51:14.024Z,100979.84
2017-12-13T01:53:40.236Z,100981.12
2017-12-13T01:56:06.448Z,100972.82
2017-12-13T01:58:32.798Z,100973.25
2017-12-13T02:00:59.920Z,100976.75
2017-12-13T02:03:26.146Z,100961.02
2017-12-13T02:05:52.430Z,100966.70
2017-12-13T02:08:18.616Z,100954.92
2017-12-13T02:10:45.196Z,100947.50
2017-12-13T02:13:11.452Z,100940.97
2017-12-13T02:15:37.655Z,100930.89
2017-12-13T02:18:03.881Z,100931.80
2017-12-13T02:20:30.107Z,100934.88
2017-12-13T02:22:56.373Z,100933.05
2017-12-13T02:25:22.577Z,100924.66
2017-12-13T02:27:48.832Z,100927.28
2017-12-13T02:30:15.029Z,100920.28
2017-12-13T02:32:41.218Z,100913.23
2017-12-13T02:35:07.474Z,100912.80
2017-12-13T02:37:33.670Z,100907.11
2017-12-13T02:40:12.108Z,100906.67
2017-12-13T02:42:38.330Z,100908.05
2017-12-13T02:45:04.529Z,100901.90
2017-12-13T02:47:30.789Z,100893.63
2017-12-13T02:49:56.997Z,100901.58
2017-12-13T02:52:23.217Z,100905.02
2017-12-13T02:54:49.522Z,100892.31
2017-12-13T02:57:16.596Z,100889.22
2017-12-13T02:59:42.821Z,100896.74
2017-12-13T03:02:09.326Z,100892.40
2017-12-13T03:04:35.568Z,100888.91
2017-12-13T03:07:01.783Z,100878.35
2017-12-13T03:09:28.031Z,100879.20
2017-12-13T03:11:54.462Z,100871.83
2017-12-13T03:14:20.661Z,100875.30
2017-12-13T03:16:46.904Z,100870.42
2017-12-13T03:19:13.106Z,100865.21
2017-12-13T03:21:39.552Z,100861.71
2017-12-13T03:24:05.824Z,100863.93
2017-12-13T03:26:32.021Z,100859.63
2017-12-13T03:28:58.459Z,100856.53
2017-12-13T03:31:24.732Z,100855.59
2017-12-13T03:33:50.935Z,100846.41
2017-12-13T03:36:17.105Z,100846.94
2017-12-13T03:38:43.571Z,100845.26
2017-12-13T03:41:09.868Z,100846.54
2017-12-13T03:43:36.024Z,100841.73
2017-12-13T03:46:02.254Z,100833.83
2017-12-13T03:48:28.432Z,100826.44
2017-12-13T03:50:54.613Z,100823.87
2017-12-13T03:53:20.857Z,100818.62
2017-12-13T03:55:47.060Z,100809.45
2017-12-13T03:58:13.260Z,100805.08
2017-12-13T04:00:39.637Z,100801.59
2017-12-13T04:03:05.830Z,100805.42
2017-12-13T04:05:32.252Z,100798.90
2017-12-13T04:07:58.511Z,100800.68
2017-12-13T04:10:24.928Z,100786.73
2017-12-13T04:12:51.122Z,100785.86
2017-12-13T04:15:17.371Z,100790.19
2017-12-13T04:17:43.538Z,100784.95
2017-12-13T04:20:09.724Z,100788.47
2017-12-13T04:22:35.957Z,100790.16
2017-12-13T04:25:02.386Z,100788.01
2017-12-13T04:27:28.614Z,100788.88
2017-12-13T04:29:54.859Z,100787.16
2017-12-13T04:32:21.064Z,100781.48
2017-12-13T04:34:47.240Z,100772.27
2017-12-13T04:37:13.497Z,100773.18
2017-12-13T04:39:54.565Z,100772.78
2017-12-13T04:42:20.821Z,100766.53
2017-12-13T04:44:47.004Z,100760.44
2017-12-13T04:47:13.183Z,100754.39
2017-12-13T04:49:39.411Z,100760.57
2017-12-13T04:52:05.590Z,100756.61
2017-12-13T04:54:31.798Z,100748.33
2017-12-13T04:56:58.029Z,100751.42
2017-12-13T04:59:24.209Z,100746.18
2017-12-13T05:01:50.373Z,100743.93
2017-12-13T05:04:16.609Z,100743.36
2017-12-13T05:06:42.789Z,100732.44
2017-12-13T05:09:08.968Z,100728.87
2017-12-13T05:11:35.217Z,100716.97
2017-12-13T05:14:01.404Z,100718.32
2017-12-13T05:16:27.578Z,100709.20
2017-12-13T05:18:53.938Z,100709.61
2017-12-13T05:21:20.149Z,100692.20
2017-12-13T05:23:46.356Z,100701.37
2017-12-13T05:26:12.809Z,100691.39
2017-12-13T05:28:39.056Z,100684.33
2017-12-13T05:31:05.273Z,100688.73
2017-12-13T05:33:31.474Z,100683.05
2017-12-13T05:35:57.696Z,100678.21
2017-12-13T05:38:23.889Z,100676.94
2017-12-13T05:40:50.073Z,100669.09
2017-12-13T05:43:16.565Z,100673.84
2017-12-13T05:45:42.828Z,100659.89
2017-12-13T05:48:09.193Z,100658.14
2017-12-13T05:50:35.424Z,100657.77
2017-12-13T05:53:01.608Z,100646.88
2017-12-13T05:55:27.791Z,100642.08
2017-12-13T05:57:54.023Z,100639.52
2017-12-13T06:00:20.217Z,100640.47
2017-12-13T06:02:46.382Z,100631.77
2017-12-13T06:05:12.614Z,100627.36
2017-12-13T06:07:38.804Z,100631.69
2017-12-13T06:10:04.988Z,100634.72
2017-12-13T06:12:31.322Z,100619.45
2017-12-13T06:14:57.489Z,100621.27
2017-12-13T06:17:23.709Z,100621.27
2017-12-13T06:19:49.959Z,100615.99
2017-12-13T06:22:16.150Z,100604.73
2017-12-13T06:24:42.336Z,100606.02
2017-12-13T06:27:08.557Z,100602.08
2017-12-13T06:29:34.723Z,100596.70
2017-12-13T06:32:01.020Z,100577.88
2017-12-13T06:34:27.286Z,100588.88
2017-12-13T06:36:53.579Z,100577.95
2017-12-13T06:39:19.782Z,100577.11
2017-12-13T06:41:46.048Z,100575.43
2017-12-13T06:44:12.263Z,100568.00
2017-12-13T06:46:38.459Z,100566.73
2017-12-13T06:49:04.710Z,100559.16
2017-12-13T06:51:30.977Z,100566.03
2017-12-13T06:53:57.258Z,100551.69
2017-12-13T06:56:23.525Z,100541.72
2017-12-13T06:58:50.101Z,100541.75
2017-12-13T07:01:16.447Z,100533.77
2017-12-13T07:03:42.700Z,100528.53
2017-12-13T07:06:08.929Z,100530.20
2017-12-13T07:08:35.119Z,100527.77
2017-12-13T07:11:01.381Z,100522.56
2017-12-13T07:13:27.568Z,100520.70
2017-12-13T07:15:53.749Z,100516.30
2017-12-13T07:18:19.959Z,100518.92
2017-12-13T07:20:46.400Z,100523.21
2017-12-13T07:23:12.632Z,100517.39
2017-12-13T07:25:38.832Z,100516.48
2017-12-13T07:28:05.022Z,100499.77
2017-12-13T07:30:31.248Z,100502.23
2017-12-13T07:32:57.682Z,100499.61
2017-12-13T07:35:23.860Z,100488.69
2017-12-13T07:37:50.104Z,100478.16
2017-12-13T07:40:16.293Z,100472.92
2017-12-13T07:42:42.513Z,100475.58
2017-12-13T07:45:08.753Z,100470.77
2017-12-13T07:47:35.195Z,100469.06
2017-12-13T07:50:01.402Z,100464.77
2017-12-13T07:52:27.639Z,100473.47
2017-12-13T07:54:53.842Z,100452.38
2017-12-13T07:57:20.053Z,100469.47
2017-12-13T07:59:46.293Z,100456.36
2017-12-13T08:02:12.460Z,100438.99
2017-12-13T08:04:38.901Z,100442.05
2017-12-13T08:07:05.151Z,100440.27
2017-12-13T08:09:31.332Z,100430.17
2017-12-13T08:11:57.760Z,100429.66
2017-12-13T08:14:24.009Z,100435.70
2017-12-13T08:16:50.438Z,100421.64
2017-12-13T08:19:16.631Z,100418.14
2017-12-13T08:21:42.880Z,100425.56
2017-12-13T08:24:09.069Z,100412.89
2017-12-13T08:26:35.262Z,100403.28
2017-12-13T08:29:01.525Z,100393.23
2017-12-13T08:31:27.742Z,100404.20
2017-12-13T08:33:54.552Z,100385.92
2017-12-13T08:36:22.219Z,100390.61
2017-12-13T08:38:48.463Z,100384.84
2017-12-13T08:41:14.775Z,100380.80
2017-12-13T08:43:41.627Z,100376.39
2017-12-13T08:46:14.119Z,100371.54
2017-12-13T08:48:41.018Z,100357.88
2017-12-13T08:51:07.215Z,100356.56
2017-12-13T08:53:33.444Z,100345.59
2017-12-13T08:55:59.686Z,100349.05
2017-12-13T08:58:25.895Z,100342.93
2017-12-13T09:00:52.073Z,100331.92
2017-12-13T09:03:18.299Z,100328.34
2017-12-13T09:05:44.496Z,100316.11
2017-12-13T09:08:10.926Z,100317.77
2017-12-13T09:10:37.429Z,100309.55
2017-12-13T09:13:03.641Z,100308.72
2017-12-13T09:15:29.818Z,100314.87
2017-12-13T09:17:56.072Z,100317.98
2017-12-13T09:20:22.278Z,100309.80
2017-12-13T09:22:48.481Z,100303.30
2017-12-13T09:25:14.714Z,100294.55
2017-12-13T09:27:40.928Z,100290.09
2017-12-13T09:30:07.140Z,100288.75
2017-12-13T09:32:33.636Z,100280.40
2017-12-13T09:34:59.822Z,100267.23
2017-12-13T09:37:26.033Z,100264.14
2017-12-13T09:39:52.511Z,100247.53
2017-12-13T09:42:18.676Z,100255.31
2017-12-13T09:44:44.880Z,100239.09
2017-12-13T09:47:11.184Z,100238.22
2017-12-13T09:49:37.396Z,100234.64
2017-12-13T09:52:03.589Z,100218.77
2017-12-13T09:54:29.832Z,100224.02
2017-12-13T09:56:55.994Z,100213.09
2017-12-13T09:59:22.401Z,100214.31
2017-12-13T10:01:48.614Z,100211.29
2017-12-13T10:04:14.810Z,100188.56
2017-12-13T10:06:41.005Z,100181.57
2017-12-13T10:09:07.285Z,100161.03
2017-12-13T10:11:33.474Z,100155.39
2017-12-13T10:13:59.665Z,100150.00
2017-12-13T10:16:25.894Z,100141.61
2017-12-13T10:18:52.093Z,100140.34
2017-12-13T10:21:18.274Z,100123.43
2017-12-13T10:23:44.512Z,100121.30
2017-12-13T10:26:10.696Z,100112.60
2017-12-13T10:28:36.863Z,100106.91
2017-12-13T10:31:03.069Z,100101.63
2017-12-13T10:33:29.258Z,100086.62
2017-12-13T10:35:55.470Z,100079.10
2017-12-13T10:38:21.723Z,100077.05
2017-12-13T10:40:47.901Z,100062.14
2017-12-13T10:43:14.117Z,100053.41
2017-12-13T10:45:40.399Z,100045.49
2017-12-13T10:48:06.681Z,100050.24
2017-12-13T10:50:33.105Z,100033.64
2017-12-13T10:52:59.347Z,100031.84
2017-12-13T10:55:25.541Z,100013.48
2017-12-13T10:57:51.742Z,100015.38
2017-12-13T11:00:18.048Z,100013.68
2017-12-13T11:02:44.278Z,99999.80
2017-12-13T11:05:10.479Z,99995.41
2017-12-13T11:07:36.717Z,99989.30
2017-12-13T11:10:02.884Z,99984.20
2017-12-13T11:12:29.090Z,99979.38
2017-12-13T11:14:55.356Z,99967.54
2017-12-13T11:17:21.551Z,99972.73
2017-12-13T11:19:47.741Z,99971.03
2017-12-13T11:22:14.207Z,99962.73
2017-12-13T11:24:40.401Z,99957.44
2017-12-13T11:27:06.645Z,99942.67
2017-12-13T11:29:32.875Z,99939.97
2017-12-13T11:31:59.062Z,99930.45
2017-12-13T11:34:25.268Z,99915.20
2017-12-13T11:36:51.528Z,99911.75
2017-12-13T11:39:17.770Z,99906.02
2017-12-13T11:41:45.939Z,99899.03
2017-12-13T11:44:12.418Z,99894.36
2017-12-13T11:46:38.663Z,99872.30
2017-12-13T11:49:05.271Z,99871.81
2017-12-13T11:51:31.520Z,99875.80
2017-12-13T11:53:57.750Z,99861.67
2017-12-13T11:56:23.969Z,99855.78
2017-12-13T11:58:50.154Z,99844.27
2017-12-13T12:01:16.419Z,99836.41
2017-12-13T12:03:42.612Z,99834.09
2017-12-13T12:06:08.817Z,99825.56
2017-12-13T12:08:35.405Z,99817.71
2017-12-13T12:11:01.620Z,99809.34
2017-12-13T12:13:27.937Z,99810.21
2017-12-13T12:15:54.118Z,99800.06
2017-12-13T12:18:20.679Z,99802.05
2017-12-13T12:20:47.212Z,99791.96
2017-12-13T12:23:13.433Z,99786.55
2017-12-13T12:25:39.649Z,99781.59
2017-12-13T12:28:05.890Z,99771.09
2017-12-13T12:30:32.094Z,99767.09
2017-12-13T12:32:58.293Z,99761.38
2017-12-13T12:35:24.530Z,99748.30
2017-12-13T12:37:50.707Z,99745.20
2017-12-13T12:40:16.918Z,99728.37
2017-12-13T12:42:43.174Z,99724.77
2017-12-13T12:45:09.752Z,99724.81
2017-12-13T12:47:35.988Z,99710.13
2017-12-13T12:50:02.253Z,99715.42
2017-12-13T12:52:28.469Z,99700.56
2017-12-13T12:54:54.728Z,99700.61
2017-12-13T12:57:20.955Z,99690.02
2017-12-13T12:59:47.126Z,99686.08
2017-12-13T13:02:13.658Z,99677.67
2017-12-13T13:04:39.948Z,99665.06
2017-12-13T13:07:06.115Z,99661.91
2017-12-13T13:09:32.276Z,99657.86
2017-12-13T13:11:58.507Z,99641.73
2017-12-13T13:14:24.736Z,99637.22
2017-12-13T13:16:50.907Z,99631.25
2017-12-13T13:19:17.195Z,99624.37
2017-12-13T13:21:43.396Z,99614.45
2017-12-13T13:24:09.569Z,99614.00
2017-12-13T13:26:35.815Z,99604.86
2017-12-13T13:29:02.049Z,99600.95
2017-12-13T13:31:28.358Z,99600.63
2017-12-13T13:33:54.586Z,99594.14
2017-12-13T13:36:20.763Z,99583.61
2017-12-13T13:38:46.972Z,99573.16
2017-12-13T13:41:13.229Z,99573.67
2017-12-13T13:43:39.461Z,99570.16
2017-12-13T13:46:05.677Z,99558.78
2017-12-13T13:48:32.013Z,99549.61
2017-12-13T13:50:58.237Z,99557.05
2017-12-13T13:53:24.428Z,99552.62
2017-12-13T13:55:50.656Z,99544.70
2017-12-13T13:58:16.845Z,99537.81
2017-12-13T14:00:43.096Z,99532.23
2017-12-13T14:03:09.319Z,99525.55
2017-12-13T14:05:35.508Z,99527.63
2017-12-13T14:08:01.705Z,99508.87
2017-12-13T14:10:27.933Z,99508.94
2017-12-13T14:12:54.121Z,99511.49
2017-12-13T14:15:20.314Z,99513.19
2017-12-13T14:17:46.568Z,99498.06
2017-12-13T14:20:12.767Z,99494.64
2017-12-13T14:22:38.947Z,99488.58
2017-12-13T14:25:05.429Z,99485.14
2017-12-13T14:27:31.622Z,99479.15
2017-12-13T14:29:57.886Z,99471.39
2017-12-13T14:32:24.121Z,99465.45
2017-12-13T14:34:50.301Z,99463.20
2017-12-13T14:37:16.498Z,99454.53
2017-12-13T14:39:43.085Z,99458.89
2017-12-13T14:42:09.291Z,99450.53
2017-12-13T14:44:37.012Z,99451.41
2017-12-13T14:47:03.690Z,99452.23
2017-12-13T14:49:31.729Z,99445.84
2017-12-13T14:51:57.985Z,99437.23
2017-12-13T14:54:24.232Z,99436.42
2017-12-13T14:56:50.668Z,99425.55
2017-12-13T14:59:16.856Z,99428.50
2017-12-13T15:01:43.081Z,99422.88
2017-12-13T15:04:09.284Z,99423.31
2017-12-13T15:06:35.468Z,99414.09
2017-12-13T15:09:01.714Z,99409.82
2017-12-13T15:11:27.916Z,99398.52
2017-12-13T15:13:54.110Z,99388.50
2017-12-13T15:16:20.573Z,99381.67
2017-12-13T15:18:46.748Z,99382.05
2017-12-13T15:21:13.037Z,99388.98
2017-12-13T15:23:39.269Z,99375.51
2017-12-13T15:26:05.675Z,99378.11
2017-12-13T15:28:31.867Z,99372.87
2017-12-13T15:30:58.098Z,99360.97
2017-12-13T15:33:24.305Z,99364.52
2017-12-13T15:35:50.507Z,99353.23
2017-12-13T15:38:16.752Z,99344.59
2017-12-13T15:40:42.929Z,99339.35
2017-12-13T15:43:09.128Z,99339.19
2017-12-13T15:45:35.368Z,99325.69
2017-12-13T15:48:01.552Z,99327.01
2017-12-13T15:50:27.826Z,99316.59
2017-12-13T15:52:54.081Z,99311.91
2017-12-13T15:55:20.265Z,99304.55
2017-12-13T15:57:46.454Z,99301.09
2017-12-13T16:00:12.723Z,99295.56
2017-12-13T16:02:38.985Z,99299.41
2017-12-13T16:05:05.151Z,99292.87
2017-12-13T16:07:31.383Z,99284.58
2017-12-13T16:09:57.592Z,99283.75
2017-12-13T16:12:24.011Z,99275.27
2017-12-13T16:14:50.483Z,99277.13
2017-12-13T16:17:16.692Z,99273.59
2017-12-13T16:19:42.931Z,99271.45
2017-12-13T16:22:09.180Z,99269.78
2017-12-13T16:24:35.365Z,99271.58
2017-12-13T16:27:01.784Z,99257.92
2017-12-13T16:29:28.261Z,99259.66
2017-12-13T16:31:54.454Z,99254.68
2017-12-13T16:34:20.652Z,99255.05
2017-12-13T16:36:46.894Z,99248.11
2017-12-13T16:39:13.136Z,99243.38
2017-12-13T16:41:39.324Z,99245.20
2017-12-13T16:44:05.616Z,99238.70
2017-12-13T16:46:31.795Z,99234.71
2017-12-13T16:48:57.987Z,99232.16
2017-12-13T16:51:24.264Z,99213.41
2017-12-13T16:53:50.480Z,99219.92
2017-12-13T16:56:16.700Z,99211.25
2017-12-13T16:58:43.210Z,99216.38
2017-12-13T17:01:09.395Z,99204.50
2017-12-13T17:03:35.588Z,99212.75
2017-12-13T17:06:01.817Z,99206.45
2017-12-13T17:08:28.001Z,99202.14
2017-12-13T17:10:54.172Z,99199.02
2017-12-13T17:13:20.421Z,99185.97
2017-12-13T17:15:46.595Z,99191.22
2017-12-13T17:18:12.830Z,99183.86
2017-12-13T17:20:39.337Z,99179.63
2017-12-13T17:23:05.536Z,99172.63
2017-12-13T17:25:31.723Z,99163.90
2017-12-13T17:27:57.967Z,99163.76
2017-12-13T17:30:24.383Z,99155.78
2017-12-13T17:32:50.575Z,99148.84
2017-12-13T17:35:16.797Z,99148.47
2017-12-13T17:37:42.988Z,99142.86
2017-12-13T17:40:09.187Z,99143.73
2017-12-13T17:42:35.427Z,99133.56
2017-12-13T17:45:01.848Z,99137.13
2017-12-13T17:47:28.032Z,99117.84
2017-12-13T17:49:54.285Z,99122.64
2017-12-13T17:52:20.504Z,99113.89
2017-12-13T17:54:46.723Z,99116.52
2017-12-13T17:57:12.950Z,99110.47
2017-12-13T17:59:39.137Z,99110.48
2017-12-13T18:02:05.319Z,99109.16
2017-12-13T18:04:31.590Z,99107.55
2017-12-13T18:06:57.790Z,99105.30
2017-12-13T18:09:23.967Z,99099.48
2017-12-13T18:11:50.220Z,99091.20
2017-12-13T18:14:16.404Z,99087.20
2017-12-13T18:16:42.844Z,99074.08
2017-12-13T18:19:09.092Z,99078.10
2017-12-13T18:21:35.266Z,99076.34
2017-12-13T18:24:01.440Z,99075.03
2017-12-13T18:26:27.731Z,99071.08
2017-12-13T18:28:53.909Z,99057.48
2017-12-13T18:31:20.074Z,99053.20
2017-12-13T18:33:46.296Z,99051.89
2017-12-13T18:36:12.489Z,99048.07
2017-12-13T18:38:38.668Z,99043.66
2017-12-13T18:41:04.910Z,99033.08
2017-12-13T18:43:31.140Z,99033.16
2017-12-13T18:45:57.652Z,99028.86
2017-12-13T18:48:24.188Z,99021.95
2017-12-13T18:50:50.367Z,99014.09
2017-12-13T18:53:16.581Z,99012.19
2017-12-13T18:55:43.179Z,99010.17
2017-12-13T18:58:09.376Z,99000.69
2017-12-13T19:00:35.636Z,98990.59
2017-12-13T19:03:01.954Z,98992.38
2017-12-13T19:05:28.162Z,98984.65
2017-12-13T19:07:54.341Z,98978.40
2017-12-13T19:10:20.690Z,98959.55
2017-12-13T19:12:46.873Z,98969.73
2017-12-13T19:15:13.080Z,98966.53
2017-12-13T19:17:39.315Z,98964.03
2017-12-13T19:20:05.511Z,98957.10
2017-12-13T19:22:31.684Z,98953.45
2017-12-13T19:24:57.937Z,98948.66
2017-12-13T19:27:24.170Z,98943.21
2017-12-13T19:29:50.392Z,98931.49
2017-12-13T19:32:16.624Z,98923.85
2017-12-13T19:34:42.827Z,98918.59
2017-12-13T19:37:09.016Z,98920.72
2017-12-13T19:39:35.259Z,98904.98
2017-12-13T19:42:01.438Z,98898.66
2017-12-13T19:44:27.956Z,98900.48
2017-12-13T19:46:54.210Z,98888.32
2017-12-13T19:49:20.479Z,98885.33
2017-12-13T19:51:46.888Z,98876.09
2017-12-13T19:54:13.370Z,98867.13
2017-12-13T19:56:39.564Z,98864.75
2017-12-13T19:59:05.733Z,98855.63
2017-12-13T20:01:31.981Z,98842.80
2017-12-13T20:03:58.162Z,98841.30
2017-12-13T20:06:24.588Z,98838.89
2017-12-13T20:08:50.820Z,98830.27
2017-12-13T20:11:17.022Z,98829.13
2017-12-13T20:13:43.457Z,98820.32
2017-12-13T20:16:09.698Z,98812.97
2017-12-13T20:18:36.124Z,98812.94
2017-12-13T20:21:02.536Z,98798.89
2017-12-13T20:23:28.772Z,98787.77
2017-12-13T20:25:54.956Z,98783.40
2017-12-13T20:28:21.141Z,98776.34
2017-12-13T20:30:47.576Z,98774.94
2017-12-13T20:33:13.759Z,98776.45
2017-12-13T20:35:39.932Z,98769.05
2017-12-13T20:38:06.176Z,98760.62
2017-12-13T20:40:32.374Z,98749.62
2017-12-13T20:42:58.562Z,98743.84
2017-12-13T20:45:24.825Z,98743.11
2017-12-13T20:47:51.269Z,98735.61
2017-12-13T20:50:17.713Z,98716.52
2017-12-13T20:52:43.968Z,98714.84
2017-12-13T20:55:10.188Z,98697.83
2017-12-13T20:57:36.360Z,98688.05
2017-12-13T21:00:02.604Z,98682.21
2017-12-13T21:02:28.783Z,98668.25
2017-12-13T21:04:54.976Z,98659.58
2017-12-13T21:07:21.214Z,98644.87
2017-12-13T21:09:47.644Z,98641.95
2017-12-13T21:12:13.843Z,98637.16
2017-12-13T21:14:40.082Z,98634.37
2017-12-13T21:17:06.514Z,98630.95
2017-12-13T21:19:32.687Z,98626.30
2017-12-13T21:21:58.935Z,98620.66
2017-12-13T21:24:25.113Z,98621.09
2017-12-13T21:26:51.308Z,98605.84
2017-12-13T21:29:17.603Z,98600.97
2017-12-13T21:31:43.796Z,98601.41
2017-12-13T21:34:10.219Z,98582.28
2017-12-13T21:36:36.468Z,98576.06
2017-12-13T21:39:02.737Z,98571.25
2017-12-13T21:41:28.950Z,98558.83
2017-12-13T21:43:55.176Z,98545.27
2017-12-13T21:46:21.389Z,98537.78
2017-12-13T21:48:47.564Z,98529.91
2017-12-13T21:51:13.817Z,98521.05
2017-12-13T21:53:40.227Z,98522.48
2017-12-13T21:56:06.499Z,98506.27
2017-12-13T21:58:33.052Z,98495.66
2017-12-13T22:00:59.228Z,98483.29
2017-12-13T22:03:25.441Z,98482.59
2017-12-13T22:05:51.676Z,98472.13
2017-12-13T22:08:17.894Z,98462.44
2017-12-13T22:10:44.079Z,98454.58
2017-12-13T22:13:10.303Z,98446.80
2017-12-13T22:15:36.497Z,98437.23
2017-12-13T22:18:02.714Z,98422.66
2017-12-13T22:20:28.944Z,98423.00
2017-12-13T22:22:55.117Z,98415.77
2017-12-13T22:25:21.308Z,98412.36
2017-12-13T22:27:47.708Z,98401.78
2017-12-13T22:30:13.900Z,98396.91
2017-12-13T22:32:40.096Z,98389.47
2017-12-13T22:35:06.342Z,98379.16
2017-12-13T22:37:32.525Z,98375.20
2017-12-13T22:39:58.950Z,98370.69
2017-12-13T22:42:25.403Z,98365.27
2017-12-13T22:44:51.582Z,98358.25
2017-12-13T22:47:17.774Z,98350.78
2017-12-13T22:49:44.000Z,98343.86
2017-12-13T22:52:10.203Z,98343.86
2017-12-13T22:54:36.612Z,98339.11
2017-12-13T22:57:02.967Z,98326.82
2017-12-13T22:59:29.144Z,98311.58
2017-12-13T23:01:55.611Z,98307.05
2017-12-13T23:04:21.872Z,98296.59
2017-12-13T23:06:48.074Z,98287.38
2017-12-13T23:09:14.268Z,98280.47
2017-12-13T23:11:40.496Z,98272.11
2017-12-13T23:14:06.737Z,98266.16
2017-12-13T23:16:32.921Z,98249.98
2017-12-13T23:18:59.418Z,98253.84
2017-12-13T23:21:25.595Z,98251.02
2017-12-13T23:23:51.787Z,98247.91
2017-12-13T23:26:18.036Z,98239.31
2017-12-13T23:28:44.465Z,98229.19
2017-12-13T23:31:10.717Z,98231.30
2017-12-13T23:33:36.960Z,98219.40
2017-12-13T23:36:03.128Z,98211.47
2017-12-13T23:38:29.321Z,98206.23
2017-12-13T23:40:55.561Z,98202.36
2017-12-13T23:43:21.759Z,98203.18
2017-12-13T23:45:47.933Z,98196.08
2017-12-13T23:48:14.196Z,98189.20
2017-12-13T23:50:40.376Z,98174.16
2017-12-13T23:53:06.800Z,98176.32
2017-12-13T23:55:33.022Z,98170.65
2017-12-13T23:57:59.204Z,98168.45
